WXBOT messages


fromtotime message
WB4WNO WXBOT 05/06 00:34:40z Reply 32219{8592
RGSTRY WXBOT 05/05 23:37:45z Reply ?{2402
WXBOT KD2OIE-12 05/05 23:31:35z Send another ast
WXBOT KD2OIE-12 05/05 23:31:30z Send another Currently at Lexington Blue Grass Airport, Temp:66 wind:180@7,overc
WXBOT KF0CBW-7 05/05 23:21:12z Send another 64
WXBOT KF0CBW-7 05/05 23:21:07z Send another Saint Cloud MN. Hazardous Weather Outlook, Friday,Mostly Sunny High
KF0CBW-7 WXBOT 05/05 23:21:00z Reply 56301 Friday {1
WXBOT W4PWT-7 05/05 23:04:20z Send another Camden NC. Wednesday,Partly Sunny High 81
W4PWT-7 WXBOT 05/05 23:00:07z Reply 27921 tomorrow {3
WXBOT KG6HPF-7 05/05 22:57:49z Send another 7 Miles E Davis-Monthan AFB AZ. Tonight,Decreasing Clouds Low 51
WXBOT W4PWT-7 05/05 22:57:37z Send another 4 Miles SE Deep Run NC. Wednesday,Partly Sunny High 83
W4PWT-7 WXBOT 05/05 22:57:29z Reply Tomorrow {2
KG6HPF-7 WXBOT 05/05 22:56:34z Reply tonight{51
RGSTRY WXBOT 05/05 22:37:45z Reply ?{2327
WXBOT WA1GOV-1 05/05 22:30:11z Send another ds Low 54
WXBOT WA1GOV-1 05/05 22:30:07z Send another East Taunton MA. Special Weather Statement, Tonight,Increasing Clou
WXBOT KF7R-7 05/05 21:52:53z Send another 6
WXBOT KF7R-7 05/05 21:52:48z Send another 4 Miles W Tonopah AZ. This Afternoon,Mostly Sunny and Breezy High 7
KF7R-7 WXBOT 05/05 21:52:41z Reply dm33{21
WXBOT KF7R-7 05/05 21:50:23z Send another h 76
WXBOT KF7R-7 05/05 21:50:18z Send another 3 Miles NW Tucson AZ. This Afternoon,Slight Chance T-storms 20% Hig
KF7R-7 WXBOT 05/05 21:50:11z Reply Tucson,AZ{20
WXBOT KF7R-7 05/05 21:43:47z Send another 2 Miles W Nogales AZ. This Afternoon,Sunny and Breezy High 71
KF0CBW wxbot 05/05 21:43:39z Reply tomorrow{1
KF7R-7 WXBOT 05/05 21:43:37z Reply mayaguez{19
WXBOT KF7R-7 05/05 21:42:52z Send another Currently at Nogales Post Office, Temp:68 wind:230@11,na
KF7R-7 WXBOT 05/05 21:42:44z Reply now{18
WXBOT KF7R-7 05/05 21:41:27z Send another 2 Miles W Nogales AZ. Tonight,Clear Low 42
KF7R-7 WXBOT 05/05 21:41:19z Reply TONIGHT{17
RGSTRY WXBOT 05/05 21:37:45z Reply ?{2252
WXBOT KQ4HZK-9 05/05 21:27:02z Send another High 70
WXBOT KQ4HZK-9 05/05 21:26:57z Send another Livermore KY. Hazardous Weather Outlook, This Afternoon,Showers 90%
KQ4HZK-9 WXBOT 05/05 21:26:48z Reply today{92
WXBOT K7TEJ-9 05/05 21:18:00z Send another FW7674 77,wind:232@15 g24,1011.0mbar,rh:25%,rain:none
WXBOT K7TEJ-9 05/05 20:39:49z Send another FW7674 75,wind:207@6 g6,1011.4mbar,rh:26%,rain:none
WXBOT W6JMP-7 05/05 20:38:25z Send another El Dorado Hills CA. This Afternoon,Mostly Sunny High 63
W6JMP-7 WXBOT 05/05 20:38:18z Reply 95762{1
RGSTRY WXBOT 05/05 20:37:45z Reply ?{2177
WXBOT K7TEJ-9 05/05 20:35:40z Send another FW7674 76,wind:239@13 g17,1011.1mbar,rh:26%,rain:none
WXBOT K4VBX 05/05 20:26:23z Send another d:190@13,a few clouds
WXBOT K4VBX 05/05 20:26:18z Send another Currently at Virginia Beach, Oceana, Naval Air Station, Temp:82 win
KM4ESU-5 WXBOT 05/05 20:20:49z Reply Today{G6W
KM4ESU-5 WXBOT 05/05 20:19:45z Reply Today{VYX
WXBOT KM4ESU-5 05/05 20:19:28z Send another 5 Miles W Owens Cross Roads AL. This Afternoon,Chance Showers 30% H
KM4ESU-5 WXBOT 05/05 20:19:19z Reply Today{432
RGSTRY WXBOT 05/05 19:37:45z Reply ?{2102
WXBOT K7TEJ-9 05/05 19:18:01z Send another FW7674 74,wind:260@15 g20,1011.9mbar,rh:32%,rain:none
WXBOT N1QQA-9 05/05 19:15:26z Send another Chance of precipitation is 30%.
WXBOT N1QQA-9 05/05 19:15:21z Send another with a southwest wind around 20 mph, with gusts as high as 35 mph.
WXBOT N1QQA-9 05/05 19:15:16z Send another understorms after 5pm. Mostly sunny, with a high near 81. Breezy,
WXBOT N1QQA-9 05/05 19:15:11z Send another 2 Miles SE Sanbornville NH. This Afternoon,Scattered showers and th
WXBOT KC1RAY-1 05/05 19:11:15z Send another on,Sunny High 82
WXBOT KC1RAY-1 05/05 19:11:10z Send another Boston, Logan International Airport MA. Wind Advisory, This Afterno
KC1RAY-1 WXBOT 05/05 19:11:03z Reply Boston,MA{079
WXBOT N1QQA-9 05/05 18:55:28z Send another eezy 30% High 81
WXBOT N1QQA-9 05/05 18:55:23z Send another 2 Miles SE Sanbornville NH. This Afternoon,Scattered Showers and Br
WXBOT KB3KBR-12 05/05 18:39:50z Send another hunderstorms.
WXBOT KB3KBR-12 05/05 18:39:45z Send another a tenth and quarter of an inch, except higher amounts possible in t
WXBOT KB3KBR-12 05/05 18:39:40z Send another mph. Chance of precipitation is 30%. New rainfall amounts between
WXBOT KB3KBR-12 05/05 18:39:35z Send another igh near 71. Southwest wind 11 to 13 mph, with gusts as high as 26
WXBOT KB3KBR-12 05/05 18:39:30z Send another owers and thunderstorms, mainly after 3pm. Mostly cloudy, with a h
WXBOT KB3KBR-12 05/05 18:39:25z Send another Seneca PA. Hazardous Weather Outlook, This Afternoon,A chance of sh
RGSTRY WXBOT 05/05 18:37:45z Reply ?{2027
WXBOT K7TEJ-9 05/05 18:19:52z Send another FW7674 73,wind:342@11 g17,1012.4mbar,rh:35%,rain:none
WXBOT KJ5KME-15 05/05 18:10:32z Send another 65
WXBOT KJ5KME-15 05/05 18:10:27z Send another Agua Fria NM. Freeze Watch, This Afternoon,Chance Showers 40% High
KJ5KME-15 WXBOT 05/05 18:10:19z Reply 87507{5
RGSTRY WXBOT 05/05 17:37:45z Reply ?{1952
WXBOT KB1NWM 05/05 17:29:26z Send another 2 Miles SW Newlin Gardens ME. This Afternoon,Mostly Sunny High 58
KB1NWM WXBOT 05/05 17:29:19z Reply 04609{5266
WXBOT KB1NWM 05/05 17:23:34z Send another Unable to find location for KB1NWM
KB1NWM WXBOT 05/05 17:23:27z Reply today{5265
WXBOT KQ4NNJ-7 05/05 17:22:32z Send another Scottsville KY. This Afternoon,Showers Likely 70% High 74
KQ4NNJ-7 WXBOT 05/05 17:22:23z Reply 42164
KQ4NNJ-7 WXBOT 05/05 17:22:22z Reply 421641
WXBOT K4PFE 05/05 17:19:06z Send another ing Clouds Low 61
WXBOT K4PFE 05/05 17:19:01z Send another 3 Miles WSW Culpeper VA. Special Weather Statement, Tonight,Increas
K4PFE WXBOT 05/05 17:18:46z Reply tonight{6562
WXBOT K4PFE 05/05 17:18:32z Send another 90% High 76
WXBOT K4PFE 05/05 17:18:27z Send another 4 Miles SSE Arcola VA. Special Weather Statement, Wednesday,Showers
K4PFE WXBOT 05/05 17:18:20z Reply Chantilly, VA tomorrow{6561
WXBOT K4PFE 05/05 17:17:19z Send another rs 80% High 76
WXBOT K4PFE 05/05 17:17:14z Send another 3 Miles WSW Culpeper VA. Special Weather Statement, Wednesday,Showe
K4PFE WXBOT 05/05 17:17:06z Reply tomorrow{6560
WXBOT K7TEJ-9 05/05 17:16:32z Send another FW7674 70,wind:257@13 g22,1012.3mbar,rh:38%,rain:none
WXBOT K4PFE 05/05 17:15:54z Send another Currently at Culpeper Regional Airport, Temp:81 wind:220@12,fair
K4PFE WXBOT 05/05 17:15:45z Reply now{6559
WXBOT K7TEJ-9 05/05 17:12:33z Send another FW7674 69,wind:229@4 g4,1012.2mbar,rh:36%,rain:none
WXBOT W4SNY-9 05/05 16:52:17z Send another Hendersonville TN. Today,Showers Likely 60% High 77
WXBOT KK7PZE-7 05/05 16:52:09z Send another with gusts as high as 20 mph.
WXBOT KK7PZE-7 05/05 16:52:04z Send another oming sunny, with a high near 73. South southwest wind 5 to 10 mph,
WXBOT KK7PZE-7 05/05 16:51:59z Send another understorms, mainly before noon. Mostly cloudy, then gradually bec
WXBOT KK7PZE-7 05/05 16:51:54z Send another 5 Miles W Rio Verde AZ. Today,A 30 percent chance of showers and th
KK7PZE-7 WXBOT 05/05 16:51:46z Reply Full{7129B
WXBOT KO6LGI 05/05 16:48:05z Send another 3 Miles NW Rancho Cordova CA. Today,Partly Sunny High 69
KO6LGI WXBOT 05/05 16:47:57z Reply 95608{18
RGSTRY WXBOT 05/05 16:37:45z Reply ?{1877
WXBOT N5IRU-2 05/05 16:33:06z Send another Slight Chance Showers 20% Low 49
WXBOT N5IRU-2 05/05 16:33:02z Send another 2 Miles N Oneta OK. Hazardous Weather Outlook, Tonight,Cloudy then
N5IRU-2 WXBOT 05/05 16:32:55z Reply 74014 tonight {12